Grundy Center, Iowa
Current Conditions -  °F | °C
As of 10:53 PM on Friday 24 Oct 2014 (Local Time) from KMIW Reporting Station
Moderate Fog Moderate Fog  
Wind Chill: 54°   Ceiling: 200
Heat Index: 54°   Visibility: 0.25mi
Dew Point: 54°   Wind: 6mph
Humidity: 100%   Direction: 250°WSW
Pressure: 29.95"   Gusts: NA
Location:  42.36°N, 92.77°W
Report Text: KMIW 250353Z AUTO 25005KT 1/4SM FG VV002 12/12 A2995 RMK AO2 SLP142 T01220122
Loading
Personal Weather Stations






























Interactive Weather Map
Tropical Storm Tracking
New forecast layout! Learn more

10-Day Weather Forecast

Advertisements
Track Severe Weather on mobile